sensor_id;sensor_type;location;lat;lon;timestamp;P1;durP1;ratioP1;P2;durP2;ratioP2
8183;SDS011;4133;48.752;9.088;2023-08-12T00:00:01;1.70;;;1.60;;
8183;SDS011;4133;48.752;9.088;2023-08-12T00:02:37;1.52;;;1.42;;
8183;SDS011;4133;48.752;9.088;2023-08-12T00:05:04;3.97;;;1.40;;
8183;SDS011;4133;48.752;9.088;2023-08-12T00:07:30;1.63;;;1.53;;
8183;SDS011;4133;48.752;9.088;2023-08-12T00:09:57;1.67;;;1.58;;
8183;SDS011;4133;48.752;9.088;2023-08-12T00:12:23;1.52;;;1.42;;
8183;SDS011;4133;48.752;9.088;2023-08-12T00:14:49;1.63;;;1.52;;
8183;SDS011;4133;48.752;9.088;2023-08-12T00:17:15;1.42;;;1.33;;
8183;SDS011;4133;48.752;9.088;2023-08-12T00:19:41;1.60;;;1.50;;
8183;SDS011;4133;48.752;9.088;2023-08-12T00:22:07;1.60;;;1.50;;
8183;SDS011;4133;48.752;9.088;2023-08-12T00:24:33;1.60;;;1.50;;
8183;SDS011;4133;48.752;9.088;2023-08-12T00:26:59;1.90;;;1.70;;
8183;SDS011;4133;48.752;9.088;2023-08-12T00:29:25;1.55;;;1.45;;
8183;SDS011;4133;48.752;9.088;2023-08-12T00:31:51;1.60;;;1.50;;
8183;SDS011;4133;48.752;9.088;2023-08-12T00:34:17;1.50;;;1.40;;
8183;SDS011;4133;48.752;9.088;2023-08-12T00:36:43;2.05;;;1.38;;
8183;SDS011;4133;48.752;9.088;2023-08-12T00:39:09;1.60;;;1.30;;
8183;SDS011;4133;48.752;9.088;2023-08-12T00:41:35;2.80;;;1.70;;
8183;SDS011;4133;48.752;9.088;2023-08-12T00:44:01;2.00;;;1.30;;
8183;SDS011;4133;48.752;9.088;2023-08-12T00:46:27;1.70;;;1.60;;
8183;SDS011;4133;48.752;9.088;2023-08-12T00:48:53;1.60;;;1.50;;
8183;SDS011;4133;48.752;9.088;2023-08-12T00:51:20;1.73;;;1.63;;
8183;SDS011;4133;48.752;9.088;2023-08-12T00:56:49;1.67;;;1.58;;
8183;SDS011;4133;48.752;9.088;2023-08-12T00:59:15;2.03;;;1.83;;
8183;SDS011;4133;48.752;9.088;2023-08-12T01:01:42;2.65;;;1.67;;
8183;SDS011;4133;48.752;9.088;2023-08-12T01:04:09;1.88;;;1.77;;
8183;SDS011;4133;48.752;9.088;2023-08-12T01:06:35;1.75;;;1.58;;
8183;SDS011;4133;48.752;9.088;2023-08-12T01:09:02;1.50;;;1.40;;
8183;SDS011;4133;48.752;9.088;2023-08-12T01:11:35;2.38;;;1.40;;
8183;SDS011;4133;48.752;9.088;2023-08-12T01:14:19;1.85;;;1.75;;
8183;SDS011;4133;48.752;9.088;2023-08-12T01:16:49;1.63;;;1.52;;
8183;SDS011;4133;48.752;9.088;2023-08-12T01:19:21;1.67;;;1.58;;
8183;SDS011;4133;48.752;9.088;2023-08-12T01:21:49;1.40;;;1.30;;
8183;SDS011;4133;48.752;9.088;2023-08-12T01:24:17;2.53;;;1.90;;
8183;SDS011;4133;48.752;9.088;2023-08-12T01:26:45;1.60;;;1.50;;
8183;SDS011;4133;48.752;9.088;2023-08-12T01:29:11;1.73;;;1.63;;
8183;SDS011;4133;48.752;9.088;2023-08-12T01:31:39;1.87;;;1.60;;
8183;SDS011;4133;48.752;9.088;2023-08-12T01:34:16;1.27;;;1.20;;
8183;SDS011;4133;48.752;9.088;2023-08-12T01:36:46;1.90;;;1.70;;
8183;SDS011;4133;48.752;9.088;2023-08-12T01:39:13;1.70;;;1.60;;
8183;SDS011;4133;48.752;9.088;2023-08-12T01:41:41;1.88;;;1.58;;
8183;SDS011;4133;48.752;9.088;2023-08-12T01:44:07;1.50;;;1.40;;
8183;SDS011;4133;48.752;9.088;2023-08-12T01:46:33;1.30;;;1.20;;
8183;SDS011;4133;48.752;9.088;2023-08-12T01:48:59;1.58;;;1.48;;
8183;SDS011;4133;48.752;9.088;2023-08-12T01:51:25;1.50;;;1.40;;
8183;SDS011;4133;48.752;9.088;2023-08-12T01:56:54;1.93;;;1.80;;
8183;SDS011;4133;48.752;9.088;2023-08-12T01:59:20;1.83;;;1.65;;
8183;SDS011;4133;48.752;9.088;2023-08-12T02:01:46;1.73;;;1.63;;
8183;SDS011;4133;48.752;9.088;2023-08-12T02:04:12;1.80;;;1.70;;
8183;SDS011;4133;48.752;9.088;2023-08-12T02:06:38;1.90;;;1.73;;
8183;SDS011;4133;48.752;9.088;2023-08-12T02:09:04;2.00;;;1.80;;
8183;SDS011;4133;48.752;9.088;2023-08-12T02:11:30;1.83;;;1.50;;
8183;SDS011;4133;48.752;9.088;2023-08-12T02:13:56;1.77;;;1.67;;
8183;SDS011;4133;48.752;9.088;2023-08-12T02:16:22;1.50;;;1.37;;
8183;SDS011;4133;48.752;9.088;2023-08-12T02:18:48;1.80;;;1.70;;
8183;SDS011;4133;48.752;9.088;2023-08-12T02:21:14;2.17;;;1.97;;
8183;SDS011;4133;48.752;9.088;2023-08-12T02:23:40;2.03;;;1.40;;
8183;SDS011;4133;48.752;9.088;2023-08-12T02:26:06;1.88;;;1.77;;
8183;SDS011;4133;48.752;9.088;2023-08-12T02:28:32;1.63;;;1.53;;
8183;SDS011;4133;48.752;9.088;2023-08-12T02:30:58;2.50;;;1.77;;
8183;SDS011;4133;48.752;9.088;2023-08-12T02:33:24;2.08;;;1.50;;
8183;SDS011;4133;48.752;9.088;2023-08-12T02:35:52;1.55;;;1.45;;
8183;SDS011;4133;48.752;9.088;2023-08-12T02:38:18;1.63;;;1.50;;
8183;SDS011;4133;48.752;9.088;2023-08-12T02:40:47;1.70;;;1.60;;
8183;SDS011;4133;48.752;9.088;2023-08-12T02:43:13;1.27;;;1.17;;
8183;SDS011;4133;48.752;9.088;2023-08-12T02:45:39;1.67;;;1.50;;
8183;SDS011;4133;48.752;9.088;2023-08-12T02:48:05;1.33;;;1.23;;
8183;SDS011;4133;48.752;9.088;2023-08-12T02:50:31;1.50;;;1.40;;
8183;SDS011;4133;48.752;9.088;2023-08-12T02:52:57;1.73;;;1.60;;
8183;SDS011;4133;48.752;9.088;2023-08-12T02:55:23;2.07;;;1.43;;
8183;SDS011;4133;48.752;9.088;2023-08-12T02:57:49;4.93;;;1.48;;
8183;SDS011;4133;48.752;9.088;2023-08-12T03:00:15;1.60;;;1.50;;
8183;SDS011;4133;48.752;9.088;2023-08-12T03:02:44;1.67;;;1.57;;
8183;SDS011;4133;48.752;9.088;2023-08-12T03:05:10;1.50;;;1.40;;
8183;SDS011;4133;48.752;9.088;2023-08-12T03:07:36;1.60;;;1.50;;
8183;SDS011;4133;48.752;9.088;2023-08-12T03:10:02;2.08;;;1.85;;
8183;SDS011;4133;48.752;9.088;2023-08-12T03:12:28;1.60;;;1.50;;
8183;SDS011;4133;48.752;9.088;2023-08-12T03:14:54;1.60;;;1.50;;
8183;SDS011;4133;48.752;9.088;2023-08-12T03:17:20;1.53;;;1.43;;
8183;SDS011;4133;48.752;9.088;2023-08-12T03:19:46;2.83;;;1.60;;
8183;SDS011;4133;48.752;9.088;2023-08-12T03:22:12;1.97;;;1.73;;
8183;SDS011;4133;48.752;9.088;2023-08-12T03:24:38;2.42;;;1.70;;
8183;SDS011;4133;48.752;9.088;2023-08-12T03:27:04;1.73;;;1.63;;
8183;SDS011;4133;48.752;9.088;2023-08-12T03:29:30;1.60;;;1.50;;
8183;SDS011;4133;48.752;9.088;2023-08-12T03:31:56;1.30;;;1.20;;
8183;SDS011;4133;48.752;9.088;2023-08-12T03:34:22;2.05;;;1.85;;
8183;SDS011;4133;48.752;9.088;2023-08-12T03:36:48;3.53;;;1.70;;
8183;SDS011;4133;48.752;9.088;2023-08-12T03:39:15;1.33;;;1.23;;
8183;SDS011;4133;48.752;9.088;2023-08-12T03:41:41;1.43;;;1.33;;
8183;SDS011;4133;48.752;9.088;2023-08-12T03:44:07;1.77;;;1.67;;
8183;SDS011;4133;48.752;9.088;2023-08-12T03:46:33;1.90;;;1.70;;
8183;SDS011;4133;48.752;9.088;2023-08-12T03:48:59;3.07;;;1.50;;
8183;SDS011;4133;48.752;9.088;2023-08-12T03:51:25;2.08;;;1.88;;
8183;SDS011;4133;48.752;9.088;2023-08-12T03:56:55;1.50;;;1.40;;
8183;SDS011;4133;48.752;9.088;2023-08-12T03:59:21;1.85;;;1.60;;
8183;SDS011;4133;48.752;9.088;2023-08-12T04:01:47;1.70;;;1.60;;
8183;SDS011;4133;48.752;9.088;2023-08-12T04:04:13;1.80;;;1.70;;
8183;SDS011;4133;48.752;9.088;2023-08-12T04:06:39;1.48;;;1.38;;
8183;SDS011;4133;48.752;9.088;2023-08-12T04:09:05;1.80;;;1.70;;
8183;SDS011;4133;48.752;9.088;2023-08-12T04:11:31;2.22;;;1.50;;
8183;SDS011;4133;48.752;9.088;2023-08-12T04:13:57;1.83;;;1.67;;
8183;SDS011;4133;48.752;9.088;2023-08-12T04:16:23;1.60;;;1.50;;
8183;SDS011;4133;48.752;9.088;2023-08-12T04:18:49;1.73;;;1.63;;
8183;SDS011;4133;48.752;9.088;2023-08-12T04:21:15;1.98;;;1.73;;
8183;SDS011;4133;48.752;9.088;2023-08-12T04:23:41;1.58;;;1.35;;
8183;SDS011;4133;48.752;9.088;2023-08-12T04:26:10;1.70;;;1.60;;
8183;SDS011;4133;48.752;9.088;2023-08-12T04:28:36;1.77;;;1.48;;
8183;SDS011;4133;48.752;9.088;2023-08-12T04:31:05;1.63;;;1.52;;
8183;SDS011;4133;48.752;9.088;2023-08-12T04:33:32;1.83;;;1.70;;
8183;SDS011;4133;48.752;9.088;2023-08-12T04:35:58;1.70;;;1.60;;
8183;SDS011;4133;48.752;9.088;2023-08-12T04:38:25;1.80;;;1.70;;
8183;SDS011;4133;48.752;9.088;2023-08-12T04:40:52;4.60;;;1.67;;
8183;SDS011;4133;48.752;9.088;2023-08-12T04:43:19;1.60;;;1.50;;
8183;SDS011;4133;48.752;9.088;2023-08-12T04:45:45;1.75;;;1.65;;
8183;SDS011;4133;48.752;9.088;2023-08-12T04:48:12;2.08;;;1.92;;
8183;SDS011;4133;48.752;9.088;2023-08-12T04:50:38;2.10;;;1.65;;
8183;SDS011;4133;48.752;9.088;2023-08-12T04:53:04;2.05;;;1.75;;
8183;SDS011;4133;48.752;9.088;2023-08-12T04:55:31;1.77;;;1.67;;
8183;SDS011;4133;48.752;9.088;2023-08-12T04:57:57;2.30;;;1.80;;
8183;SDS011;4133;48.752;9.088;2023-08-12T05:00:23;2.03;;;1.92;;
8183;SDS011;4133;48.752;9.088;2023-08-12T05:02:49;1.55;;;1.48;;
8183;SDS011;4133;48.752;9.088;2023-08-12T05:05:15;1.73;;;1.63;;
8183;SDS011;4133;48.752;9.088;2023-08-12T05:07:41;1.83;;;1.73;;
8183;SDS011;4133;48.752;9.088;2023-08-12T05:10:09;1.80;;;1.70;;
8183;SDS011;4133;48.752;9.088;2023-08-12T05:12:35;4.40;;;2.08;;
8183;SDS011;4133;48.752;9.088;2023-08-12T05:15:01;2.25;;;1.75;;
8183;SDS011;4133;48.752;9.088;2023-08-12T05:17:27;2.53;;;1.98;;
8183;SDS011;4133;48.752;9.088;2023-08-12T05:19:53;2.75;;;1.50;;
8183;SDS011;4133;48.752;9.088;2023-08-12T05:22:19;1.60;;;1.50;;
8183;SDS011;4133;48.752;9.088;2023-08-12T05:24:45;2.03;;;1.83;;
8183;SDS011;4133;48.752;9.088;2023-08-12T05:27:11;1.90;;;1.70;;
8183;SDS011;4133;48.752;9.088;2023-08-12T05:29:37;2.10;;;1.90;;
8183;SDS011;4133;48.752;9.088;2023-08-12T05:32:03;2.08;;;1.90;;
8183;SDS011;4133;48.752;9.088;2023-08-12T05:34:29;1.95;;;1.75;;
8183;SDS011;4133;48.752;9.088;2023-08-12T05:36:55;2.17;;;1.70;;
8183;SDS011;4133;48.752;9.088;2023-08-12T05:39:21;1.80;;;1.65;;
8183;SDS011;4133;48.752;9.088;2023-08-12T05:41:47;2.50;;;2.17;;
8183;SDS011;4133;48.752;9.088;2023-08-12T05:44:13;1.67;;;1.58;;
8183;SDS011;4133;48.752;9.088;2023-08-12T05:46:39;2.10;;;1.90;;
8183;SDS011;4133;48.752;9.088;2023-08-12T05:49:05;2.42;;;1.80;;
8183;SDS011;4133;48.752;9.088;2023-08-12T05:51:31;2.00;;;1.90;;
8183;SDS011;4133;48.752;9.088;2023-08-12T05:57:01;2.28;;;2.08;;
8183;SDS011;4133;48.752;9.088;2023-08-12T05:59:27;2.00;;;1.90;;
8183;SDS011;4133;48.752;9.088;2023-08-12T06:01:54;1.92;;;1.73;;
8183;SDS011;4133;48.752;9.088;2023-08-12T06:04:20;2.25;;;1.73;;
8183;SDS011;4133;48.752;9.088;2023-08-12T06:06:46;2.15;;;1.95;;
8183;SDS011;4133;48.752;9.088;2023-08-12T06:09:12;2.03;;;1.67;;
8183;SDS011;4133;48.752;9.088;2023-08-12T06:11:38;2.03;;;1.80;;
8183;SDS011;4133;48.752;9.088;2023-08-12T06:14:03;2.00;;;1.75;;
8183;SDS011;4133;48.752;9.088;2023-08-12T06:16:29;1.85;;;1.75;;
8183;SDS011;4133;48.752;9.088;2023-08-12T06:18:56;2.10;;;1.90;;
8183;SDS011;4133;48.752;9.088;2023-08-12T06:21:22;2.20;;;2.00;;
8183;SDS011;4133;48.752;9.088;2023-08-12T06:23:48;3.35;;;1.95;;
8183;SDS011;4133;48.752;9.088;2023-08-12T06:26:14;2.20;;;2.00;;
8183;SDS011;4133;48.752;9.088;2023-08-12T06:28:40;2.15;;;2.00;;
8183;SDS011;4133;48.752;9.088;2023-08-12T06:31:06;2.72;;;2.20;;
8183;SDS011;4133;48.752;9.088;2023-08-12T06:33:32;2.70;;;2.15;;
8183;SDS011;4133;48.752;9.088;2023-08-12T06:35:58;2.35;;;2.03;;
8183;SDS011;4133;48.752;9.088;2023-08-12T06:38:24;4.10;;;2.58;;
8183;SDS011;4133;48.752;9.088;2023-08-12T06:40:50;2.88;;;2.45;;
8183;SDS011;4133;48.752;9.088;2023-08-12T06:43:16;2.35;;;2.05;;
8183;SDS011;4133;48.752;9.088;2023-08-12T06:45:42;3.05;;;2.70;;
8183;SDS011;4133;48.752;9.088;2023-08-12T06:48:08;2.55;;;2.35;;
8183;SDS011;4133;48.752;9.088;2023-08-12T06:50:34;2.58;;;2.38;;
8183;SDS011;4133;48.752;9.088;2023-08-12T06:56:03;1.80;;;1.70;;
8183;SDS011;4133;48.752;9.088;2023-08-12T06:58:30;3.53;;;1.85;;
8183;SDS011;4133;48.752;9.088;2023-08-12T07:00:56;2.20;;;2.00;;
8183;SDS011;4133;48.752;9.088;2023-08-12T07:03:24;1.80;;;1.70;;
8183;SDS011;4133;48.752;9.088;2023-08-12T07:05:51;2.15;;;2.05;;
8183;SDS011;4133;48.752;9.088;2023-08-12T07:08:17;2.58;;;1.98;;
8183;SDS011;4133;48.752;9.088;2023-08-12T07:10:43;2.10;;;1.90;;
8183;SDS011;4133;48.752;9.088;2023-08-12T07:13:09;2.58;;;1.90;;
8183;SDS011;4133;48.752;9.088;2023-08-12T07:15:35;1.92;;;1.83;;
8183;SDS011;4133;48.752;9.088;2023-08-12T07:18:01;2.38;;;1.92;;
8183;SDS011;4133;48.752;9.088;2023-08-12T07:20:27;2.60;;;2.05;;
8183;SDS011;4133;48.752;9.088;2023-08-12T07:22:53;2.10;;;2.00;;
8183;SDS011;4133;48.752;9.088;2023-08-12T07:25:20;2.47;;;2.00;;
8183;SDS011;4133;48.752;9.088;2023-08-12T07:27:46;2.40;;;1.98;;
8183;SDS011;4133;48.752;9.088;2023-08-12T07:30:12;3.13;;;2.33;;
8183;SDS011;4133;48.752;9.088;2023-08-12T07:32:38;2.00;;;1.90;;
8183;SDS011;4133;48.752;9.088;2023-08-12T07:35:05;2.20;;;2.00;;
8183;SDS011;4133;48.752;9.088;2023-08-12T07:37:31;2.50;;;1.83;;
8183;SDS011;4133;48.752;9.088;2023-08-12T07:39:57;2.15;;;2.00;;
8183;SDS011;4133;48.752;9.088;2023-08-12T07:42:23;2.30;;;2.10;;
8183;SDS011;4133;48.752;9.088;2023-08-12T07:44:49;1.77;;;1.67;;
8183;SDS011;4133;48.752;9.088;2023-08-12T07:47:16;2.17;;;2.00;;
8183;SDS011;4133;48.752;9.088;2023-08-12T07:49:42;2.75;;;2.00;;
8183;SDS011;4133;48.752;9.088;2023-08-12T07:52:08;1.70;;;1.60;;
8183;SDS011;4133;48.752;9.088;2023-08-12T07:54:34;1.67;;;1.58;;
8183;SDS011;4133;48.752;9.088;2023-08-12T07:57:03;2.65;;;1.80;;
8183;SDS011;4133;48.752;9.088;2023-08-12T07:59:29;1.83;;;1.73;;
8183;SDS011;4133;48.752;9.088;2023-08-12T08:01:55;1.83;;;1.73;;
8183;SDS011;4133;48.752;9.088;2023-08-12T08:04:21;1.80;;;1.70;;
8183;SDS011;4133;48.752;9.088;2023-08-12T08:06:47;1.73;;;1.63;;
8183;SDS011;4133;48.752;9.088;2023-08-12T08:09:13;1.70;;;1.60;;
8183;SDS011;4133;48.752;9.088;2023-08-12T08:11:39;2.80;;;2.03;;
8183;SDS011;4133;48.752;9.088;2023-08-12T08:14:05;1.73;;;1.63;;
8183;SDS011;4133;48.752;9.088;2023-08-12T08:16:31;2.10;;;1.63;;
8183;SDS011;4133;48.752;9.088;2023-08-12T08:18:57;1.60;;;1.50;;
8183;SDS011;4133;48.752;9.088;2023-08-12T08:21:23;1.90;;;1.80;;
8183;SDS011;4133;48.752;9.088;2023-08-12T08:23:49;1.98;;;1.80;;
8183;SDS011;4133;48.752;9.088;2023-08-12T08:26:15;1.63;;;1.52;;
8183;SDS011;4133;48.752;9.088;2023-08-12T08:28:41;3.92;;;1.58;;
8183;SDS011;4133;48.752;9.088;2023-08-12T08:31:08;1.80;;;1.70;;
8183;SDS011;4133;48.752;9.088;2023-08-12T08:33:34;1.58;;;1.48;;
8183;SDS011;4133;48.752;9.088;2023-08-12T08:36:00;1.50;;;1.40;;
8183;SDS011;4133;48.752;9.088;2023-08-12T08:38:26;1.63;;;1.40;;
8183;SDS011;4133;48.752;9.088;2023-08-12T08:40:52;1.35;;;1.25;;
8183;SDS011;4133;48.752;9.088;2023-08-12T08:43:20;2.17;;;1.40;;
8183;SDS011;4133;48.752;9.088;2023-08-12T08:45:51;3.17;;;1.40;;
8183;SDS011;4133;48.752;9.088;2023-08-12T08:48:18;1.63;;;1.52;;
8183;SDS011;4133;48.752;9.088;2023-08-12T08:50:44;1.30;;;1.25;;
8183;SDS011;4133;48.752;9.088;2023-08-12T08:53:11;1.48;;;1.38;;
8183;SDS011;4133;48.752;9.088;2023-08-12T08:55:40;1.70;;;1.60;;
8183;SDS011;4133;48.752;9.088;2023-08-12T08:58:06;1.52;;;1.42;;
8183;SDS011;4133;48.752;9.088;2023-08-12T09:00:32;1.52;;;1.42;;
8183;SDS011;4133;48.752;9.088;2023-08-12T09:02:59;1.55;;;1.40;;
8183;SDS011;4133;48.752;9.088;2023-08-12T09:05:25;2.63;;;1.40;;
8183;SDS011;4133;48.752;9.088;2023-08-12T09:07:52;1.25;;;1.23;;
8183;SDS011;4133;48.752;9.088;2023-08-12T09:10:20;1.30;;;1.20;;
8183;SDS011;4133;48.752;9.088;2023-08-12T09:12:46;1.33;;;1.23;;
8183;SDS011;4133;48.752;9.088;2023-08-12T09:15:12;1.17;;;1.10;;
8183;SDS011;4133;48.752;9.088;2023-08-12T09:17:39;3.38;;;1.15;;
8183;SDS011;4133;48.752;9.088;2023-08-12T09:20:05;1.77;;;1.00;;
8183;SDS011;4133;48.752;9.088;2023-08-12T09:22:37;1.20;;;1.10;;
8183;SDS011;4133;48.752;9.088;2023-08-12T09:25:03;1.40;;;1.30;;
8183;SDS011;4133;48.752;9.088;2023-08-12T09:27:32;1.05;;;1.05;;
8183;SDS011;4133;48.752;9.088;2023-08-12T09:29:58;1.52;;;1.42;;
8183;SDS011;4133;48.752;9.088;2023-08-12T09:32:24;1.38;;;1.27;;
8183;SDS011;4133;48.752;9.088;2023-08-12T09:34:51;3.10;;;1.40;;
8183;SDS011;4133;48.752;9.088;2023-08-12T09:37:18;1.65;;;1.55;;
8183;SDS011;4133;48.752;9.088;2023-08-12T09:39:44;1.58;;;1.48;;
8183;SDS011;4133;48.752;9.088;2023-08-12T09:42:11;1.30;;;1.20;;
8183;SDS011;4133;48.752;9.088;2023-08-12T09:44:37;1.58;;;1.20;;
8183;SDS011;4133;48.752;9.088;2023-08-12T09:47:03;1.90;;;1.35;;
8183;SDS011;4133;48.752;9.088;2023-08-12T09:49:29;1.40;;;1.30;;
8183;SDS011;4133;48.752;9.088;2023-08-12T09:51:55;1.38;;;1.27;;
8183;SDS011;4133;48.752;9.088;2023-08-12T09:54:22;1.70;;;1.60;;
8183;SDS011;4133;48.752;9.088;2023-08-12T09:56:58;1.58;;;1.17;;
8183;SDS011;4133;48.752;9.088;2023-08-12T09:59:24;1.60;;;1.50;;
8183;SDS011;4133;48.752;9.088;2023-08-12T10:01:50;1.20;;;1.10;;
8183;SDS011;4133;48.752;9.088;2023-08-12T10:04:18;1.67;;;1.58;;
8183;SDS011;4133;48.752;9.088;2023-08-12T10:06:46;1.52;;;1.42;;
8183;SDS011;4133;48.752;9.088;2023-08-12T10:09:13;1.60;;;1.50;;
8183;SDS011;4133;48.752;9.088;2023-08-12T10:11:40;1.48;;;1.38;;
8183;SDS011;4133;48.752;9.088;2023-08-12T10:14:08;1.58;;;1.48;;
8183;SDS011;4133;48.752;9.088;2023-08-12T10:16:34;1.25;;;1.15;;
8183;SDS011;4133;48.752;9.088;2023-08-12T10:19:00;1.73;;;1.63;;
8183;SDS011;4133;48.752;9.088;2023-08-12T10:21:27;2.95;;;1.70;;
8183;SDS011;4133;48.752;9.088;2023-08-12T10:23:54;1.95;;;1.20;;
8183;SDS011;4133;48.752;9.088;2023-08-12T10:26:22;1.52;;;1.42;;
8183;SDS011;4133;48.752;9.088;2023-08-12T10:28:48;1.60;;;1.50;;
8183;SDS011;4133;48.752;9.088;2023-08-12T10:31:14;1.75;;;1.65;;
8183;SDS011;4133;48.752;9.088;2023-08-12T10:33:41;1.52;;;1.42;;
8183;SDS011;4133;48.752;9.088;2023-08-12T10:36:07;1.73;;;1.40;;
8183;SDS011;4133;48.752;9.088;2023-08-12T10:38:33;1.85;;;1.60;;
8183;SDS011;4133;48.752;9.088;2023-08-12T10:41:19;2.50;;;1.50;;
8183;SDS011;4133;48.752;9.088;2023-08-12T10:43:55;1.85;;;1.70;;
8183;SDS011;4133;48.752;9.088;2023-08-12T10:46:31;1.77;;;1.55;;
8183;SDS011;4133;48.752;9.088;2023-08-12T10:51:40;2.55;;;1.30;;
8183;SDS011;4133;48.752;9.088;2023-08-12T10:54:10;1.42;;;1.27;;
8183;SDS011;4133;48.752;9.088;2023-08-12T10:57:25;1.40;;;1.20;;
8183;SDS011;4133;48.752;9.088;2023-08-12T11:04:54;1.45;;;1.17;;
8183;SDS011;4133;48.752;9.088;2023-08-12T11:07:28;1.40;;;1.30;;
8183;SDS011;4133;48.752;9.088;2023-08-12T11:09:55;1.48;;;1.38;;
8183;SDS011;4133;48.752;9.088;2023-08-12T11:12:29;1.52;;;1.42;;
8183;SDS011;4133;48.752;9.088;2023-08-12T11:14:56;2.00;;;1.30;;
8183;SDS011;4133;48.752;9.088;2023-08-12T11:17:29;1.10;;;1.08;;
8183;SDS011;4133;48.752;9.088;2023-08-12T11:19:55;1.40;;;1.30;;
8183;SDS011;4133;48.752;9.088;2023-08-12T11:22:21;2.20;;;1.42;;
8183;SDS011;4133;48.752;9.088;2023-08-12T11:24:48;1.58;;;1.48;;
8183;SDS011;4133;48.752;9.088;2023-08-12T11:27:14;1.30;;;1.27;;
8183;SDS011;4133;48.752;9.088;2023-08-12T11:29:40;1.63;;;1.40;;
8183;SDS011;4133;48.752;9.088;2023-08-12T11:32:06;1.75;;;1.38;;
8183;SDS011;4133;48.752;9.088;2023-08-12T11:34:32;1.25;;;1.15;;
8183;SDS011;4133;48.752;9.088;2023-08-12T11:36:58;1.35;;;1.25;;
8183;SDS011;4133;48.752;9.088;2023-08-12T11:39:24;1.60;;;1.50;;
8183;SDS011;4133;48.752;9.088;2023-08-12T11:41:50;1.90;;;1.67;;
8183;SDS011;4133;48.752;9.088;2023-08-12T11:44:16;1.63;;;1.20;;
8183;SDS011;4133;48.752;9.088;2023-08-12T11:46:42;1.50;;;1.40;;
8183;SDS011;4133;48.752;9.088;2023-08-12T11:49:08;1.88;;;1.30;;
8183;SDS011;4133;48.752;9.088;2023-08-12T11:51:34;1.75;;;1.65;;
8183;SDS011;4133;48.752;9.088;2023-08-12T11:54:01;1.30;;;1.20;;
8183;SDS011;4133;48.752;9.088;2023-08-12T11:56:28;1.45;;;1.35;;
8183;SDS011;4133;48.752;9.088;2023-08-12T11:58:55;1.73;;;1.40;;
8183;SDS011;4133;48.752;9.088;2023-08-12T12:01:21;1.88;;;1.30;;
8183;SDS011;4133;48.752;9.088;2023-08-12T12:03:51;1.63;;;1.45;;
8183;SDS011;4133;48.752;9.088;2023-08-12T12:06:17;1.60;;;1.50;;
8183;SDS011;4133;48.752;9.088;2023-08-12T12:08:52;2.50;;;1.55;;
8183;SDS011;4133;48.752;9.088;2023-08-12T12:11:19;1.90;;;1.80;;
8183;SDS011;4133;48.752;9.088;2023-08-12T12:13:45;2.10;;;2.00;;
8183;SDS011;4133;48.752;9.088;2023-08-12T12:16:12;1.90;;;1.70;;
8183;SDS011;4133;48.752;9.088;2023-08-12T12:18:38;2.63;;;1.92;;
8183;SDS011;4133;48.752;9.088;2023-08-12T12:21:04;3.03;;;2.15;;
8183;SDS011;4133;48.752;9.088;2023-08-12T12:23:31;1.80;;;1.70;;
8183;SDS011;4133;48.752;9.088;2023-08-12T12:25:59;2.42;;;1.95;;
8183;SDS011;4133;48.752;9.088;2023-08-12T12:28:25;3.20;;;2.05;;
8183;SDS011;4133;48.752;9.088;2023-08-12T12:30:51;2.38;;;1.77;;
8183;SDS011;4133;48.752;9.088;2023-08-12T12:33:17;2.30;;;1.98;;
8183;SDS011;4133;48.752;9.088;2023-08-12T12:35:43;2.35;;;2.15;;
8183;SDS011;4133;48.752;9.088;2023-08-12T12:38:09;1.90;;;1.80;;
8183;SDS011;4133;48.752;9.088;2023-08-12T12:40:36;2.30;;;2.10;;
8183;SDS011;4133;48.752;9.088;2023-08-12T12:43:03;4.95;;;2.00;;
8183;SDS011;4133;48.752;9.088;2023-08-12T12:45:29;2.42;;;2.00;;
8183;SDS011;4133;48.752;9.088;2023-08-12T12:47:55;3.10;;;2.03;;
8183;SDS011;4133;48.752;9.088;2023-08-12T12:50:21;3.67;;;2.05;;
8183;SDS011;4133;48.752;9.088;2023-08-12T12:52:47;2.40;;;2.20;;
8183;SDS011;4133;48.752;9.088;2023-08-12T12:55:13;2.50;;;2.30;;
8183;SDS011;4133;48.752;9.088;2023-08-12T12:57:39;2.22;;;2.03;;
8183;SDS011;4133;48.752;9.088;2023-08-12T13:00:05;3.22;;;2.22;;
8183;SDS011;4133;48.752;9.088;2023-08-12T13:02:36;2.40;;;2.20;;
8183;SDS011;4133;48.752;9.088;2023-08-12T13:05:02;3.15;;;2.47;;
8183;SDS011;4133;48.752;9.088;2023-08-12T13:07:28;3.40;;;2.70;;
8183;SDS011;4133;48.752;9.088;2023-08-12T13:09:54;4.18;;;2.42;;
8183;SDS011;4133;48.752;9.088;2023-08-12T13:12:20;2.35;;;2.15;;
8183;SDS011;4133;48.752;9.088;2023-08-12T13:14:46;3.20;;;2.30;;
8183;SDS011;4133;48.752;9.088;2023-08-12T13:17:12;3.15;;;2.40;;
8183;SDS011;4133;48.752;9.088;2023-08-12T13:19:38;3.92;;;2.33;;
8183;SDS011;4133;48.752;9.088;2023-08-12T13:22:04;2.63;;;2.42;;
8183;SDS011;4133;48.752;9.088;2023-08-12T13:24:30;3.33;;;2.60;;
8183;SDS011;4133;48.752;9.088;2023-08-12T13:26:56;3.97;;;2.33;;
8183;SDS011;4133;48.752;9.088;2023-08-12T13:29:22;2.58;;;2.38;;
8183;SDS011;4133;48.752;9.088;2023-08-12T13:31:48;3.60;;;2.50;;
8183;SDS011;4133;48.752;9.088;2023-08-12T13:34:14;2.47;;;2.28;;
8183;SDS011;4133;48.752;9.088;2023-08-12T13:36:41;2.40;;;2.20;;
8183;SDS011;4133;48.752;9.088;2023-08-12T13:39:07;2.55;;;2.35;;
8183;SDS011;4133;48.752;9.088;2023-08-12T13:41:33;2.67;;;2.35;;
8183;SDS011;4133;48.752;9.088;2023-08-12T13:43:59;4.00;;;2.67;;
8183;SDS011;4133;48.752;9.088;2023-08-12T13:46:25;4.25;;;2.55;;
8183;SDS011;4133;48.752;9.088;2023-08-12T13:48:52;2.45;;;2.25;;
8183;SDS011;4133;48.752;9.088;2023-08-12T13:51:18;2.53;;;2.28;;
8183;SDS011;4133;48.752;9.088;2023-08-12T13:53:44;2.67;;;2.45;;
8183;SDS011;4133;48.752;9.088;2023-08-12T13:56:10;2.38;;;2.17;;
8183;SDS011;4133;48.752;9.088;2023-08-12T13:58:36;2.45;;;1.90;;
8183;SDS011;4133;48.752;9.088;2023-08-12T14:01:04;2.13;;;1.95;;
8183;SDS011;4133;48.752;9.088;2023-08-12T14:03:30;2.72;;;1.88;;
8183;SDS011;4133;48.752;9.088;2023-08-12T14:05:56;2.08;;;1.70;;
8183;SDS011;4133;48.752;9.088;2023-08-12T14:08:22;1.90;;;1.65;;
8183;SDS011;4133;48.752;9.088;2023-08-12T14:10:48;2.53;;;1.40;;
8183;SDS011;4133;48.752;9.088;2023-08-12T14:13:15;1.33;;;1.23;;
8183;SDS011;4133;48.752;9.088;2023-08-12T14:15:41;1.67;;;1.58;;
8183;SDS011;4133;48.752;9.088;2023-08-12T14:18:07;1.40;;;1.30;;
8183;SDS011;4133;48.752;9.088;2023-08-12T14:20:33;1.30;;;1.10;;
8183;SDS011;4133;48.752;9.088;2023-08-12T14:22:59;1.17;;;1.08;;
8183;SDS011;4133;48.752;9.088;2023-08-12T14:25:25;1.65;;;1.20;;
8183;SDS011;4133;48.752;9.088;2023-08-12T14:27:51;1.52;;;1.42;;
8183;SDS011;4133;48.752;9.088;2023-08-12T14:30:17;1.40;;;1.30;;
8183;SDS011;4133;48.752;9.088;2023-08-12T14:32:47;1.30;;;1.20;;
8183;SDS011;4133;48.752;9.088;2023-08-12T14:35:13;1.33;;;1.23;;
8183;SDS011;4133;48.752;9.088;2023-08-12T14:37:39;1.20;;;1.10;;
8183;SDS011;4133;48.752;9.088;2023-08-12T14:40:05;1.55;;;1.30;;
8183;SDS011;4133;48.752;9.088;2023-08-12T14:42:32;1.65;;;1.33;;
8183;SDS011;4133;48.752;9.088;2023-08-12T14:44:58;1.63;;;1.23;;
8183;SDS011;4133;48.752;9.088;2023-08-12T14:47:24;1.30;;;1.20;;
8183;SDS011;4133;48.752;9.088;2023-08-12T14:49:50;1.45;;;1.10;;
8183;SDS011;4133;48.752;9.088;2023-08-12T14:52:18;1.30;;;1.20;;
8183;SDS011;4133;48.752;9.088;2023-08-12T14:54:49;1.45;;;1.35;;
8183;SDS011;4133;48.752;9.088;2023-08-12T14:57:15;1.20;;;1.10;;
8183;SDS011;4133;48.752;9.088;2023-08-12T14:59:41;0.98;;;0.98;;
8183;SDS011;4133;48.752;9.088;2023-08-12T15:02:07;1.17;;;1.08;;
8183;SDS011;4133;48.752;9.088;2023-08-12T15:04:37;1.10;;;1.05;;
8183;SDS011;4133;48.752;9.088;2023-08-12T15:07:03;2.05;;;1.10;;
8183;SDS011;4133;48.752;9.088;2023-08-12T15:09:29;1.52;;;1.40;;
8183;SDS011;4133;48.752;9.088;2023-08-12T15:11:55;1.15;;;1.10;;
8183;SDS011;4133;48.752;9.088;2023-08-12T15:14:21;1.83;;;1.02;;
8183;SDS011;4133;48.752;9.088;2023-08-12T15:16:47;1.00;;;1.00;;
8183;SDS011;4133;48.752;9.088;2023-08-12T15:19:13;1.20;;;1.20;;
8183;SDS011;4133;48.752;9.088;2023-08-12T15:21:39;2.35;;;1.20;;
8183;SDS011;4133;48.752;9.088;2023-08-12T15:24:05;1.35;;;1.02;;
8183;SDS011;4133;48.752;9.088;2023-08-12T15:26:31;1.42;;;1.25;;
8183;SDS011;4133;48.752;9.088;2023-08-12T15:28:57;1.00;;;1.00;;
8183;SDS011;4133;48.752;9.088;2023-08-12T15:31:23;1.55;;;1.35;;
8183;SDS011;4133;48.752;9.088;2023-08-12T15:33:49;1.40;;;1.30;;